Graham, Kentucky
Current Conditions -  °F | °C
As of 2:15 PM on Monday 22 Dec 2014 (Local Time) from K2I0 Reporting Station
Overcast Overcast  
Wind Chill: 54°   Ceiling: 1700
Heat Index: 54°   Visibility: 10mi
Dew Point: 47°   Wind: 8mph
Humidity: 80%   Direction: 160°SSE
Pressure: 29.72"   Gusts: NA
Location:  37.25°N, 87.28°W
Report Text: K2I0 222015Z AUTO 16007KT 10SM OVC017 12/09 A2972 RMK AO2 T01200086
Loading
Personal Weather Stations






























Interactive Weather Map New forecast layout! Learn more

10-Day Weather Forecast

Advertisements
Track Severe Weather on mobile